sensor_id;sensor_type;location;lat;lon;timestamp;temperature;humidity
66102;HTU21D;52883;51.094;5.880;2022-10-16T00:01:17;12.41;118.99
66102;HTU21D;52883;51.094;5.880;2022-10-16T00:03:45;12.42;118.99
66102;HTU21D;52883;51.094;5.880;2022-10-16T00:06:12;12.41;118.99
66102;HTU21D;52883;51.094;5.880;2022-10-16T00:08:38;12.37;118.99
66102;HTU21D;52883;51.094;5.880;2022-10-16T00:11:05;12.34;118.99
66102;HTU21D;52883;51.094;5.880;2022-10-16T00:13:33;12.35;118.99
66102;HTU21D;52883;51.094;5.880;2022-10-16T00:16:01;12.31;118.99
66102;HTU21D;52883;51.094;5.880;2022-10-16T00:18:28;12.31;118.99
66102;HTU21D;52883;51.094;5.880;2022-10-16T00:20:54;12.33;118.99
66102;HTU21D;52883;51.094;5.880;2022-10-16T00:23:20;12.31;118.99
66102;HTU21D;52883;51.094;5.880;2022-10-16T00:25:58;12.33;118.99
66102;HTU21D;52883;51.094;5.880;2022-10-16T00:28:24;12.34;118.99
66102;HTU21D;52883;51.094;5.880;2022-10-16T00:30:50;12.31;118.99
66102;HTU21D;52883;51.094;5.880;2022-10-16T00:33:15;12.27;118.99
66102;HTU21D;52883;51.094;5.880;2022-10-16T00:35:41;12.25;118.99
66102;HTU21D;52883;51.094;5.880;2022-10-16T00:38:07;12.22;118.99
66102;HTU21D;52883;51.094;5.880;2022-10-16T00:40:32;12.19;118.99
66102;HTU21D;52883;51.094;5.880;2022-10-16T00:42:58;12.14;118.99
66102;HTU21D;52883;51.094;5.880;2022-10-16T00:45:24;12.08;118.99
66102;HTU21D;52883;51.094;5.880;2022-10-16T00:47:52;12.03;118.99
66102;HTU21D;52883;51.094;5.880;2022-10-16T00:50:24;12.02;118.99
66102;HTU21D;52883;51.094;5.880;2022-10-16T00:52:52;11.98;118.99
66102;HTU21D;52883;51.094;5.880;2022-10-16T00:55:19;11.94;118.99
66102;HTU21D;52883;51.094;5.880;2022-10-16T00:57:45;11.90;118.99
66102;HTU21D;52883;51.094;5.880;2022-10-16T01:00:16;11.84;118.99
66102;HTU21D;52883;51.094;5.880;2022-10-16T01:02:42;11.87;118.99
66102;HTU21D;52883;51.094;5.880;2022-10-16T01:05:08;11.90;118.99
66102;HTU21D;52883;51.094;5.880;2022-10-16T01:10:40;11.86;118.99
66102;HTU21D;52883;51.094;5.880;2022-10-16T01:13:21;11.86;118.99
66102;HTU21D;52883;51.094;5.880;2022-10-16T01:15:56;11.82;118.99
66102;HTU21D;52883;51.094;5.880;2022-10-16T01:19:01;11.75;118.99
66102;HTU21D;52883;51.094;5.880;2022-10-16T01:21:38;11.69;118.99
66102;HTU21D;52883;51.094;5.880;2022-10-16T01:24:11;11.59;118.99
66102;HTU21D;52883;51.094;5.880;2022-10-16T01:35:27;11.38;118.99
66102;HTU21D;52883;51.094;5.880;2022-10-16T01:38:03;11.41;118.99
66102;HTU21D;52883;51.094;5.880;2022-10-16T01:40:34;11.41;118.99
66102;HTU21D;52883;51.094;5.880;2022-10-16T01:43:12;11.43;118.99
66102;HTU21D;52883;51.094;5.880;2022-10-16T01:45:41;11.43;118.99
66102;HTU21D;52883;51.094;5.880;2022-10-16T01:48:12;11.39;118.99
66102;HTU21D;52883;51.094;5.880;2022-10-16T01:50:43;11.34;118.99
66102;HTU21D;52883;51.094;5.880;2022-10-16T01:53:13;11.36;118.99
66102;HTU21D;52883;51.094;5.880;2022-10-16T01:55:44;11.33;118.99
66102;HTU21D;52883;51.094;5.880;2022-10-16T01:58:13;11.30;118.99
66102;HTU21D;52883;51.094;5.880;2022-10-16T02:00:44;11.32;118.99
66102;HTU21D;52883;51.094;5.880;2022-10-16T02:03:13;11.40;118.99
66102;HTU21D;52883;51.094;5.880;2022-10-16T02:05:46;11.45;118.99
66102;HTU21D;52883;51.094;5.880;2022-10-16T02:08:15;11.47;118.99
66102;HTU21D;52883;51.094;5.880;2022-10-16T02:10:41;11.49;118.99
66102;HTU21D;52883;51.094;5.880;2022-10-16T02:13:14;11.59;118.99
66102;HTU21D;52883;51.094;5.880;2022-10-16T02:15:41;11.63;118.99
66102;HTU21D;52883;51.094;5.880;2022-10-16T02:18:07;11.63;118.99
66102;HTU21D;52883;51.094;5.880;2022-10-16T02:20:44;11.64;118.99
66102;HTU21D;52883;51.094;5.880;2022-10-16T02:23:24;11.62;118.99
66102;HTU21D;52883;51.094;5.880;2022-10-16T02:25:55;11.61;118.99
66102;HTU21D;52883;51.094;5.880;2022-10-16T02:28:35;11.68;118.99
66102;HTU21D;52883;51.094;5.880;2022-10-16T02:31:07;11.71;118.99
66102;HTU21D;52883;51.094;5.880;2022-10-16T02:33:36;11.71;118.99
66102;HTU21D;52883;51.094;5.880;2022-10-16T02:36:03;11.70;118.99
66102;HTU21D;52883;51.094;5.880;2022-10-16T02:38:30;11.69;118.99
66102;HTU21D;52883;51.094;5.880;2022-10-16T02:40:56;11.71;118.99
66102;HTU21D;52883;51.094;5.880;2022-10-16T02:43:21;11.68;118.99
66102;HTU21D;52883;51.094;5.880;2022-10-16T02:45:47;11.68;118.99
66102;HTU21D;52883;51.094;5.880;2022-10-16T02:48:12;11.70;118.99
66102;HTU21D;52883;51.094;5.880;2022-10-16T02:50:38;11.75;118.99
66102;HTU21D;52883;51.094;5.880;2022-10-16T02:53:04;11.78;118.99
66102;HTU21D;52883;51.094;5.880;2022-10-16T02:55:29;11.84;118.99
66102;HTU21D;52883;51.094;5.880;2022-10-16T02:57:55;11.84;118.99
66102;HTU21D;52883;51.094;5.880;2022-10-16T03:00:21;11.85;118.99
66102;HTU21D;52883;51.094;5.880;2022-10-16T03:02:46;11.82;118.99
66102;HTU21D;52883;51.094;5.880;2022-10-16T03:05:13;11.82;118.99
66102;HTU21D;52883;51.094;5.880;2022-10-16T03:07:39;11.83;118.99
66102;HTU21D;52883;51.094;5.880;2022-10-16T03:10:05;11.89;118.99
66102;HTU21D;52883;51.094;5.880;2022-10-16T03:12:31;11.92;118.99
66102;HTU21D;52883;51.094;5.880;2022-10-16T03:14:57;11.93;118.99
66102;HTU21D;52883;51.094;5.880;2022-10-16T03:17:23;11.92;118.99
66102;HTU21D;52883;51.094;5.880;2022-10-16T03:19:49;11.86;118.99
66102;HTU21D;52883;51.094;5.880;2022-10-16T03:22:15;11.82;118.99
66102;HTU21D;52883;51.094;5.880;2022-10-16T03:24:41;11.77;118.99
66102;HTU21D;52883;51.094;5.880;2022-10-16T03:27:06;11.69;118.99
66102;HTU21D;52883;51.094;5.880;2022-10-16T03:29:32;11.66;118.99
66102;HTU21D;52883;51.094;5.880;2022-10-16T03:31:58;11.62;118.99
66102;HTU21D;52883;51.094;5.880;2022-10-16T03:34:24;11.54;118.99
66102;HTU21D;52883;51.094;5.880;2022-10-16T03:36:50;11.44;118.99
66102;HTU21D;52883;51.094;5.880;2022-10-16T03:39:15;11.34;118.99
66102;HTU21D;52883;51.094;5.880;2022-10-16T03:41:41;11.32;118.99
66102;HTU21D;52883;51.094;5.880;2022-10-16T03:44:06;11.23;118.99
66102;HTU21D;52883;51.094;5.880;2022-10-16T03:46:32;11.23;118.99
66102;HTU21D;52883;51.094;5.880;2022-10-16T03:48:58;11.24;118.99
66102;HTU21D;52883;51.094;5.880;2022-10-16T03:51:23;11.22;118.99
66102;HTU21D;52883;51.094;5.880;2022-10-16T03:53:49;11.19;118.99
66102;HTU21D;52883;51.094;5.880;2022-10-16T03:56:15;11.17;118.99
66102;HTU21D;52883;51.094;5.880;2022-10-16T03:58:40;11.14;118.99
66102;HTU21D;52883;51.094;5.880;2022-10-16T04:01:06;11.11;118.99
66102;HTU21D;52883;51.094;5.880;2022-10-16T04:03:32;11.10;118.99
66102;HTU21D;52883;51.094;5.880;2022-10-16T04:05:58;11.05;118.99
66102;HTU21D;52883;51.094;5.880;2022-10-16T04:08:24;11.02;118.99
66102;HTU21D;52883;51.094;5.880;2022-10-16T04:10:49;10.99;118.99
66102;HTU21D;52883;51.094;5.880;2022-10-16T04:13:16;11.02;118.99
66102;HTU21D;52883;51.094;5.880;2022-10-16T04:15:41;10.98;118.99
66102;HTU21D;52883;51.094;5.880;2022-10-16T04:18:07;10.96;118.99
66102;HTU21D;52883;51.094;5.880;2022-10-16T04:20:34;11.04;118.99
66102;HTU21D;52883;51.094;5.880;2022-10-16T04:22:59;11.11;118.99
66102;HTU21D;52883;51.094;5.880;2022-10-16T04:25:25;11.12;118.99
66102;HTU21D;52883;51.094;5.880;2022-10-16T04:27:52;11.13;118.99
66102;HTU21D;52883;51.094;5.880;2022-10-16T04:30:19;11.13;118.99
66102;HTU21D;52883;51.094;5.880;2022-10-16T04:32:49;11.10;118.99
66102;HTU21D;52883;51.094;5.880;2022-10-16T04:35:16;11.11;118.99
66102;HTU21D;52883;51.094;5.880;2022-10-16T04:37:42;11.20;118.99
66102;HTU21D;52883;51.094;5.880;2022-10-16T04:40:08;11.22;118.99
66102;HTU21D;52883;51.094;5.880;2022-10-16T04:42:33;11.24;118.99
66102;HTU21D;52883;51.094;5.880;2022-10-16T04:44:59;11.25;118.99
66102;HTU21D;52883;51.094;5.880;2022-10-16T04:47:24;11.25;118.99
66102;HTU21D;52883;51.094;5.880;2022-10-16T04:49:50;11.27;118.99
66102;HTU21D;52883;51.094;5.880;2022-10-16T04:52:15;11.34;118.99
66102;HTU21D;52883;51.094;5.880;2022-10-16T04:54:41;11.42;118.99
66102;HTU21D;52883;51.094;5.880;2022-10-16T04:57:07;11.44;118.99
66102;HTU21D;52883;51.094;5.880;2022-10-16T04:59:32;11.43;118.99
66102;HTU21D;52883;51.094;5.880;2022-10-16T05:01:58;11.38;118.99
66102;HTU21D;52883;51.094;5.880;2022-10-16T05:04:23;11.37;118.99
66102;HTU21D;52883;51.094;5.880;2022-10-16T05:06:49;11.34;118.99
66102;HTU21D;52883;51.094;5.880;2022-10-16T05:09:15;11.34;118.99
66102;HTU21D;52883;51.094;5.880;2022-10-16T05:11:40;11.38;118.99
66102;HTU21D;52883;51.094;5.880;2022-10-16T05:14:06;11.43;118.99
66102;HTU21D;52883;51.094;5.880;2022-10-16T05:16:31;11.44;118.99
66102;HTU21D;52883;51.094;5.880;2022-10-16T05:18:57;11.42;118.99
66102;HTU21D;52883;51.094;5.880;2022-10-16T05:21:22;11.41;118.99
66102;HTU21D;52883;51.094;5.880;2022-10-16T05:23:48;11.45;118.99
66102;HTU21D;52883;51.094;5.880;2022-10-16T05:26:13;11.47;118.99
66102;HTU21D;52883;51.094;5.880;2022-10-16T05:28:39;11.44;118.99
66102;HTU21D;52883;51.094;5.880;2022-10-16T05:31:09;11.39;118.99
66102;HTU21D;52883;51.094;5.880;2022-10-16T05:33:35;11.30;118.99
66102;HTU21D;52883;51.094;5.880;2022-10-16T05:36:06;11.37;118.99
66102;HTU21D;52883;51.094;5.880;2022-10-16T05:38:34;11.36;118.99
66102;HTU21D;52883;51.094;5.880;2022-10-16T05:41:00;11.39;118.99
66102;HTU21D;52883;51.094;5.880;2022-10-16T05:43:27;11.42;118.99
66102;HTU21D;52883;51.094;5.880;2022-10-16T05:45:57;11.44;118.99
66102;HTU21D;52883;51.094;5.880;2022-10-16T05:48:24;11.39;118.99
66102;HTU21D;52883;51.094;5.880;2022-10-16T05:50:59;11.28;118.99
66102;HTU21D;52883;51.094;5.880;2022-10-16T05:53:27;11.26;118.99
66102;HTU21D;52883;51.094;5.880;2022-10-16T05:55:56;11.30;118.99
66102;HTU21D;52883;51.094;5.880;2022-10-16T05:58:23;11.40;118.99
66102;HTU21D;52883;51.094;5.880;2022-10-16T06:00:57;11.44;118.99
66102;HTU21D;52883;51.094;5.880;2022-10-16T06:03:24;11.54;118.99
66102;HTU21D;52883;51.094;5.880;2022-10-16T06:05:50;11.59;118.99
66102;HTU21D;52883;51.094;5.880;2022-10-16T06:08:15;11.59;118.99
66102;HTU21D;52883;51.094;5.880;2022-10-16T06:10:41;11.59;118.99
66102;HTU21D;52883;51.094;5.880;2022-10-16T06:13:07;11.59;118.99
66102;HTU21D;52883;51.094;5.880;2022-10-16T06:15:32;11.58;118.99
66102;HTU21D;52883;51.094;5.880;2022-10-16T06:17:58;11.59;118.99
66102;HTU21D;52883;51.094;5.880;2022-10-16T06:20:24;11.57;118.99
66102;HTU21D;52883;51.094;5.880;2022-10-16T06:22:49;11.58;118.99
66102;HTU21D;52883;51.094;5.880;2022-10-16T06:25:15;11.59;118.99
66102;HTU21D;52883;51.094;5.880;2022-10-16T06:27:40;11.57;118.99
66102;HTU21D;52883;51.094;5.880;2022-10-16T06:30:07;11.58;118.99
66102;HTU21D;52883;51.094;5.880;2022-10-16T06:32:32;11.58;118.99
66102;HTU21D;52883;51.094;5.880;2022-10-16T06:34:58;11.57;118.99
66102;HTU21D;52883;51.094;5.880;2022-10-16T06:37:24;11.59;118.99
66102;HTU21D;52883;51.094;5.880;2022-10-16T06:39:50;11.54;118.99
66102;HTU21D;52883;51.094;5.880;2022-10-16T06:42:18;11.52;118.99
66102;HTU21D;52883;51.094;5.880;2022-10-16T06:44:44;11.48;118.99
66102;HTU21D;52883;51.094;5.880;2022-10-16T06:47:10;11.45;118.99
66102;HTU21D;52883;51.094;5.880;2022-10-16T06:49:35;11.43;118.99
66102;HTU21D;52883;51.094;5.880;2022-10-16T06:52:01;11.42;118.99
66102;HTU21D;52883;51.094;5.880;2022-10-16T06:54:27;11.40;118.99
66102;HTU21D;52883;51.094;5.880;2022-10-16T06:56:53;11.44;118.99
66102;HTU21D;52883;51.094;5.880;2022-10-16T06:59:22;11.51;118.99
66102;HTU21D;52883;51.094;5.880;2022-10-16T07:01:48;11.53;118.99
66102;HTU21D;52883;51.094;5.880;2022-10-16T07:04:14;11.54;118.99
66102;HTU21D;52883;51.094;5.880;2022-10-16T07:06:40;11.54;118.99
66102;HTU21D;52883;51.094;5.880;2022-10-16T07:09:08;11.56;118.99
66102;HTU21D;52883;51.094;5.880;2022-10-16T07:11:37;11.62;118.99
66102;HTU21D;52883;51.094;5.880;2022-10-16T07:14:03;11.78;118.99
66102;HTU21D;52883;51.094;5.880;2022-10-16T07:16:32;11.93;118.99
66102;HTU21D;52883;51.094;5.880;2022-10-16T07:19:00;12.05;118.99
66102;HTU21D;52883;51.094;5.880;2022-10-16T07:21:32;12.16;118.99
66102;HTU21D;52883;51.094;5.880;2022-10-16T07:24:01;12.28;118.99
66102;HTU21D;52883;51.094;5.880;2022-10-16T07:26:30;12.40;118.99
66102;HTU21D;52883;51.094;5.880;2022-10-16T07:28:56;12.49;118.99
66102;HTU21D;52883;51.094;5.880;2022-10-16T07:31:22;12.59;118.99
66102;HTU21D;52883;51.094;5.880;2022-10-16T07:33:49;12.69;118.99
66102;HTU21D;52883;51.094;5.880;2022-10-16T07:36:17;12.79;118.99
66102;HTU21D;52883;51.094;5.880;2022-10-16T07:38:43;12.93;118.99
66102;HTU21D;52883;51.094;5.880;2022-10-16T07:41:12;13.03;118.99
66102;HTU21D;52883;51.094;5.880;2022-10-16T07:43:38;13.14;118.99
66102;HTU21D;52883;51.094;5.880;2022-10-16T07:46:05;13.19;118.99
66102;HTU21D;52883;51.094;5.880;2022-10-16T07:48:33;13.30;118.99
66102;HTU21D;52883;51.094;5.880;2022-10-16T07:51:01;13.38;118.99
66102;HTU21D;52883;51.094;5.880;2022-10-16T07:53:27;13.47;118.99
66102;HTU21D;52883;51.094;5.880;2022-10-16T07:56:00;13.54;118.99
66102;HTU21D;52883;51.094;5.880;2022-10-16T07:58:27;13.61;118.99
66102;HTU21D;52883;51.094;5.880;2022-10-16T08:00:53;13.66;118.99
66102;HTU21D;52883;51.094;5.880;2022-10-16T08:03:18;13.75;118.99
66102;HTU21D;52883;51.094;5.880;2022-10-16T08:05:44;13.81;118.99
66102;HTU21D;52883;51.094;5.880;2022-10-16T08:08:13;13.84;118.99
66102;HTU21D;52883;51.094;5.880;2022-10-16T08:10:40;13.88;118.99
66102;HTU21D;52883;51.094;5.880;2022-10-16T08:13:06;13.96;118.99
66102;HTU21D;52883;51.094;5.880;2022-10-16T08:15:31;14.06;118.99
66102;HTU21D;52883;51.094;5.880;2022-10-16T08:18:02;14.18;118.99
66102;HTU21D;52883;51.094;5.880;2022-10-16T08:20:29;14.49;118.99
66102;HTU21D;52883;51.094;5.880;2022-10-16T08:22:56;14.82;118.99
66102;HTU21D;52883;51.094;5.880;2022-10-16T08:25:22;15.10;118.99
66102;HTU21D;52883;51.094;5.880;2022-10-16T08:27:48;15.36;118.99
66102;HTU21D;52883;51.094;5.880;2022-10-16T08:30:15;15.53;118.99
66102;HTU21D;52883;51.094;5.880;2022-10-16T08:32:41;15.58;118.99
66102;HTU21D;52883;51.094;5.880;2022-10-16T08:35:09;15.73;118.99
66102;HTU21D;52883;51.094;5.880;2022-10-16T08:37:35;15.84;118.99
66102;HTU21D;52883;51.094;5.880;2022-10-16T08:40:00;15.92;118.99
66102;HTU21D;52883;51.094;5.880;2022-10-16T08:45:34;15.99;118.99
66102;HTU21D;52883;51.094;5.880;2022-10-16T08:48:20;16.00;118.99
66102;HTU21D;52883;51.094;5.880;2022-10-16T08:50:50;15.87;118.99
66102;HTU21D;52883;51.094;5.880;2022-10-16T08:53:49;15.67;118.99
66102;HTU21D;52883;51.094;5.880;2022-10-16T08:56:18;15.56;118.99
66102;HTU21D;52883;51.094;5.880;2022-10-16T08:58:45;15.57;118.99
66102;HTU21D;52883;51.094;5.880;2022-10-16T09:01:15;15.56;118.99
66102;HTU21D;52883;51.094;5.880;2022-10-16T09:15:17;16.27;118.99
66102;HTU21D;52883;51.094;5.880;2022-10-16T09:18:21;16.50;118.99
66102;HTU21D;52883;51.094;5.880;2022-10-16T09:21:05;16.85;118.99
66102;HTU21D;52883;51.094;5.880;2022-10-16T09:23:35;17.09;118.99
66102;HTU21D;52883;51.094;5.880;2022-10-16T09:26:03;17.41;118.99
66102;HTU21D;52883;51.094;5.880;2022-10-16T09:28:30;17.69;118.99
66102;HTU21D;52883;51.094;5.880;2022-10-16T09:30:56;17.92;118.99
66102;HTU21D;52883;51.094;5.880;2022-10-16T09:33:29;18.13;118.99
66102;HTU21D;52883;51.094;5.880;2022-10-16T09:35:57;18.26;118.99
66102;HTU21D;52883;51.094;5.880;2022-10-16T09:38:35;18.50;118.99
66102;HTU21D;52883;51.094;5.880;2022-10-16T09:41:12;18.62;118.99
66102;HTU21D;52883;51.094;5.880;2022-10-16T09:43:46;18.88;118.99
66102;HTU21D;52883;51.094;5.880;2022-10-16T09:46:26;18.97;118.99
66102;HTU21D;52883;51.094;5.880;2022-10-16T09:49:02;19.11;118.99
66102;HTU21D;52883;51.094;5.880;2022-10-16T09:51:30;19.21;118.99
66102;HTU21D;52883;51.094;5.880;2022-10-16T09:53:59;19.33;118.99
66102;HTU21D;52883;51.094;5.880;2022-10-16T09:56:31;19.56;118.99
66102;HTU21D;52883;51.094;5.880;2022-10-16T09:59:02;19.63;118.99
66102;HTU21D;52883;51.094;5.880;2022-10-16T10:01:37;19.80;118.99
66102;HTU21D;52883;51.094;5.880;2022-10-16T10:04:05;20.03;118.99
66102;HTU21D;52883;51.094;5.880;2022-10-16T10:06:34;20.28;118.99
66102;HTU21D;52883;51.094;5.880;2022-10-16T10:11:44;20.57;118.99
66102;HTU21D;52883;51.094;5.880;2022-10-16T10:14:21;20.63;118.99
66102;HTU21D;52883;51.094;5.880;2022-10-16T10:16:48;20.73;118.99
66102;HTU21D;52883;51.094;5.880;2022-10-16T10:21:41;21.14;118.99
66102;HTU21D;52883;51.094;5.880;2022-10-16T10:24:15;21.33;118.99
66102;HTU21D;52883;51.094;5.880;2022-10-16T10:26:52;21.50;118.99
66102;HTU21D;52883;51.094;5.880;2022-10-16T10:29:57;21.57;118.99
66102;HTU21D;52883;51.094;5.880;2022-10-16T10:38:02;22.25;118.99
66102;HTU21D;52883;51.094;5.880;2022-10-16T10:40:51;22.31;118.99
66102;HTU21D;52883;51.094;5.880;2022-10-16T10:57:48;22.85;118.99
66102;HTU21D;52883;51.094;5.880;2022-10-16T11:00:35;22.61;118.99
66102;HTU21D;52883;51.094;5.880;2022-10-16T11:06:18;22.17;118.99
66102;HTU21D;52883;51.094;5.880;2022-10-16T11:08:53;21.78;118.99
66102;HTU21D;52883;51.094;5.880;2022-10-16T11:11:31;21.43;118.99
66102;HTU21D;52883;51.094;5.880;2022-10-16T11:14:06;21.29;118.99
66102;HTU21D;52883;51.094;5.880;2022-10-16T11:16:45;21.57;118.99
66102;HTU21D;52883;51.094;5.880;2022-10-16T11:22:38;21.82;118.99
66102;HTU21D;52883;51.094;5.880;2022-10-16T11:27:45;21.75;118.99
66102;HTU21D;52883;51.094;5.880;2022-10-16T11:30:25;21.61;118.99
66102;HTU21D;52883;51.094;5.880;2022-10-16T11:38:39;22.36;118.99
66102;HTU21D;52883;51.094;5.880;2022-10-16T11:41:24;22.92;118.99
66102;HTU21D;52883;51.094;5.880;2022-10-16T11:44:14;23.36;118.99
66102;HTU21D;52883;51.094;5.880;2022-10-16T11:49:27;23.47;118.99
66102;HTU21D;52883;51.094;5.880;2022-10-16T11:52:26;23.20;118.99
66102;HTU21D;52883;51.094;5.880;2022-10-16T11:54:55;22.93;118.99
66102;HTU21D;52883;51.094;5.880;2022-10-16T11:57:32;22.83;118.99
66102;HTU21D;52883;51.094;5.880;2022-10-16T12:00:05;22.98;118.99
66102;HTU21D;52883;51.094;5.880;2022-10-16T12:02:54;23.17;118.99
66102;HTU21D;52883;51.094;5.880;2022-10-16T12:05:52;23.11;118.99
66102;HTU21D;52883;51.094;5.880;2022-10-16T12:08:21;23.01;118.99
66102;HTU21D;52883;51.094;5.880;2022-10-16T12:10:47;22.99;118.99
66102;HTU21D;52883;51.094;5.880;2022-10-16T12:13:32;23.02;118.99
66102;HTU21D;52883;51.094;5.880;2022-10-16T12:16:21;23.26;118.99
66102;HTU21D;52883;51.094;5.880;2022-10-16T12:18:48;23.62;118.99
66102;HTU21D;52883;51.094;5.880;2022-10-16T12:21:16;23.83;118.99
66102;HTU21D;52883;51.094;5.880;2022-10-16T12:23:52;23.57;118.99
66102;HTU21D;52883;51.094;5.880;2022-10-16T12:26:45;23.03;118.99
66102;HTU21D;52883;51.094;5.880;2022-10-16T12:32:03;22.28;118.99
66102;HTU21D;52883;51.094;5.880;2022-10-16T12:34:29;22.31;118.99
66102;HTU21D;52883;51.094;5.880;2022-10-16T12:37:18;22.34;118.99
66102;HTU21D;52883;51.094;5.880;2022-10-16T12:39:46;22.40;118.99
66102;HTU21D;52883;51.094;5.880;2022-10-16T12:44:46;22.36;118.99
66102;HTU21D;52883;51.094;5.880;2022-10-16T12:47:35;22.25;118.99
66102;HTU21D;52883;51.094;5.880;2022-10-16T12:50:01;22.07;118.99
66102;HTU21D;52883;51.094;5.880;2022-10-16T12:52:27;22.03;118.99
66102;HTU21D;52883;51.094;5.880;2022-10-16T12:54:57;22.16;118.99
66102;HTU21D;52883;51.094;5.880;2022-10-16T13:00:16;22.86;118.99
66102;HTU21D;52883;51.094;5.880;2022-10-16T13:13:56;23.45;118.99
66102;HTU21D;52883;51.094;5.880;2022-10-16T13:22:29;23.32;118.99
66102;HTU21D;52883;51.094;5.880;2022-10-16T13:25:26;23.39;118.99
66102;HTU21D;52883;51.094;5.880;2022-10-16T13:28:05;23.43;118.99
66102;HTU21D;52883;51.094;5.880;2022-10-16T13:33:20;23.17;118.99
66102;HTU21D;52883;51.094;5.880;2022-10-16T13:35:53;23.06;118.99
66102;HTU21D;52883;51.094;5.880;2022-10-16T13:38:22;22.92;118.99
66102;HTU21D;52883;51.094;5.880;2022-10-16T13:40:56;22.88;118.99
66102;HTU21D;52883;51.094;5.880;2022-10-16T13:43:34;22.91;118.99
66102;HTU21D;52883;51.094;5.880;2022-10-16T13:46:04;22.98;118.99
66102;HTU21D;52883;51.094;5.880;2022-10-16T13:48:31;22.91;118.99
66102;HTU21D;52883;51.094;5.880;2022-10-16T13:51:15;22.82;118.99
66102;HTU21D;52883;51.094;5.880;2022-10-16T13:53:43;22.73;118.99
66102;HTU21D;52883;51.094;5.880;2022-10-16T13:56:14;22.73;118.99
66102;HTU21D;52883;51.094;5.880;2022-10-16T13:58:41;22.85;118.99
66102;HTU21D;52883;51.094;5.880;2022-10-16T14:01:28;22.81;118.99
66102;HTU21D;52883;51.094;5.880;2022-10-16T14:04:05;22.70;118.99
66102;HTU21D;52883;51.094;5.880;2022-10-16T14:06:33;22.48;118.99
66102;HTU21D;52883;51.094;5.880;2022-10-16T14:09:09;22.22;118.99
66102;HTU21D;52883;51.094;5.880;2022-10-16T14:11:49;22.18;118.99
66102;HTU21D;52883;51.094;5.880;2022-10-16T14:14:18;22.21;118.99
66102;HTU21D;52883;51.094;5.880;2022-10-16T14:16:44;22.12;118.99
66102;HTU21D;52883;51.094;5.880;2022-10-16T14:19:25;22.07;118.99
66102;HTU21D;52883;51.094;5.880;2022-10-16T14:21:53;21.97;118.99
66102;HTU21D;52883;51.094;5.880;2022-10-16T14:24:27;21.80;118.99
66102;HTU21D;52883;51.094;5.880;2022-10-16T14:26:57;21.62;118.99
66102;HTU21D;52883;51.094;5.880;2022-10-16T14:29:25;21.50;118.99
66102;HTU21D;52883;51.094;5.880;2022-10-16T14:32:02;21.37;118.99
66102;HTU21D;52883;51.094;5.880;2022-10-16T14:34:37;21.20;118.99
66102;HTU21D;52883;51.094;5.880;2022-10-16T14:37:26;21.09;118.99
66102;HTU21D;52883;51.094;5.880;2022-10-16T14:39:53;20.98;118.99
66102;HTU21D;52883;51.094;5.880;2022-10-16T14:42:22;20.92;118.99
66102;HTU21D;52883;51.094;5.880;2022-10-16T14:44:54;20.89;118.99
66102;HTU21D;52883;51.094;5.880;2022-10-16T14:47:26;20.84;118.99
66102;HTU21D;52883;51.094;5.880;2022-10-16T14:49:53;20.83;118.99
66102;HTU21D;52883;51.094;5.880;2022-10-16T14:52:24;20.70;118.99
66102;HTU21D;52883;51.094;5.880;2022-10-16T14:54:50;20.51;118.99
66102;HTU21D;52883;51.094;5.880;2022-10-16T14:57:19;20.39;118.99
66102;HTU21D;52883;51.094;5.880;2022-10-16T14:59:46;20.29;118.99
66102;HTU21D;52883;51.094;5.880;2022-10-16T15:02:32;20.16;118.99
66102;HTU21D;52883;51.094;5.880;2022-10-16T15:05:16;20.13;118.99
66102;HTU21D;52883;51.094;5.880;2022-10-16T15:07:42;20.05;118.99
66102;HTU21D;52883;51.094;5.880;2022-10-16T15:10:08;20.00;118.99
66102;HTU21D;52883;51.094;5.880;2022-10-16T15:12:33;19.94;118.99
66102;HTU21D;52883;51.094;5.880;2022-10-16T15:14:59;19.85;118.99
66102;HTU21D;52883;51.094;5.880;2022-10-16T15:17:24;19.80;118.99
66102;HTU21D;52883;51.094;5.880;2022-10-16T15:19:50;19.77;118.99
66102;HTU21D;52883;51.094;5.880;2022-10-16T15:22:16;19.73;118.99
66102;HTU21D;52883;51.094;5.880;2022-10-16T15:24:42;19.61;118.99
66102;HTU21D;52883;51.094;5.880;2022-10-16T15:27:08;19.50;118.99
66102;HTU21D;52883;51.094;5.880;2022-10-16T15:29:34;19.41;118.99
66102;HTU21D;52883;51.094;5.880;2022-10-16T15:31:59;19.38;118.99
66102;HTU21D;52883;51.094;5.880;2022-10-16T15:34:25;19.36;118.99
66102;HTU21D;52883;51.094;5.880;2022-10-16T15:36:50;19.32;118.99
66102;HTU21D;52883;51.094;5.880;2022-10-16T15:39:19;19.31;118.99
66102;HTU21D;52883;51.094;5.880;2022-10-16T15:41:46;19.30;118.99
66102;HTU21D;52883;51.094;5.880;2022-10-16T15:44:17;19.29;118.99
66102;HTU21D;52883;51.094;5.880;2022-10-16T15:46:42;19.31;118.99
66102;HTU21D;52883;51.094;5.880;2022-10-16T15:49:09;19.25;118.99
66102;HTU21D;52883;51.094;5.880;2022-10-16T15:51:39;19.15;118.99
66102;HTU21D;52883;51.094;5.880;2022-10-16T15:54:05;19.03;118.99
66102;HTU21D;52883;51.094;5.880;2022-10-16T15:56:33;18.92;118.99
66102;HTU21D;52883;51.094;5.880;2022-10-16T15:58:59;18.79;118.99
66102;HTU21D;52883;51.094;5.880;2022-10-16T16:01:26;18.68;118.99
66102;HTU21D;52883;51.094;5.880;2022-10-16T16:03:55;18.62;118.99
66102;HTU21D;52883;51.094;5.880;2022-10-16T16:06:22;18.53;118.99
66102;HTU21D;52883;51.094;5.880;2022-10-16T16:08:51;18.44;118.99
66102;HTU21D;52883;51.094;5.880;2022-10-16T16:11:18;18.35;118.99
66102;HTU21D;52883;51.094;5.880;2022-10-16T16:13:44;18.26;118.99
66102;HTU21D;52883;51.094;5.880;2022-10-16T16:16:12;18.14;118.99
66102;HTU21D;52883;51.094;5.880;2022-10-16T16:18:40;18.03;118.99
66102;HTU21D;52883;51.094;5.880;2022-10-16T16:21:06;17.93;118.99
66102;HTU21D;52883;51.094;5.880;2022-10-16T16:23:32;17.83;118.99
66102;HTU21D;52883;51.094;5.880;2022-10-16T16:26:11;17.77;118.99
66102;HTU21D;52883;51.094;5.880;2022-10-16T16:28:38;17.70;118.99
66102;HTU21D;52883;51.094;5.880;2022-10-16T16:31:04;17.64;118.99
66102;HTU21D;52883;51.094;5.880;2022-10-16T16:33:30;17.58;118.99
66102;HTU21D;52883;51.094;5.880;2022-10-16T16:35:58;17.52;118.99
66102;HTU21D;52883;51.094;5.880;2022-10-16T16:38:24;17.45;118.99
66102;HTU21D;52883;51.094;5.880;2022-10-16T16:40:49;17.39;118.99
66102;HTU21D;52883;51.094;5.880;2022-10-16T16:43:15;17.35;118.99
66102;HTU21D;52883;51.094;5.880;2022-10-16T16:45:40;17.31;118.99
66102;HTU21D;52883;51.094;5.880;2022-10-16T16:48:06;17.29;118.99
66102;HTU21D;52883;51.094;5.880;2022-10-16T16:50:36;17.24;118.99
66102;HTU21D;52883;51.094;5.880;2022-10-16T16:53:02;17.21;118.99
66102;HTU21D;52883;51.094;5.880;2022-10-16T16:55:28;17.17;118.99